»·PEaware :: N416JK KTUS-KBLH

N416JK :: KTUS-KBLH

FLIGHT INFORMATION

Flight Status: Arrived
Operator: Privately registered:
United States
More flights under this callsign
Pilot: John K. (4202)
Aircraft: Unknown
(EPIC)
More flights by this aircraft type
Origin: KTUS Tucson Intl
United States
Destination: KBLH Blythe
United States
More flights between these airports :: More routes between these airports
Route: +TORTS V66 GBN V94 VICKO V16 JAROZ
File this flight plan on PilotEdge
Remarks:
Altitude:
(Current/Filed)
8,000ft
Speed:
(Current/Filed)
240kts
Departed: 30-Aug-17 12:37 PM
Arrived: 30-Aug-17 01:33 PM
Distance/Time
Traveled:
210nm/0:55
Distance/Time
To Go:
Arrived

Flight Plot

Page will automatically refresh every two minutes.

Flight plan parsing failed; only flown route is shown


Map Options




Map Legend


Flown Route
Filed Route
Departure Airport
Arrival Airport
Navaid (VOR, NDB)
Fix

Horizontal Profiles

Position Reports

Time Latitude Longitude Heading Altitude Ground
Speed
30-Aug-17 12:26 32.123611 -110.945208 244 2647ft 0kts
30-Aug-17 12:27 32.123611 -110.945208 244 2647ft 0kts
30-Aug-17 12:28 32.123611 -110.945208 244 2647ft 0kts
30-Aug-17 12:29 32.123611 -110.945208 244 2647ft 0kts
30-Aug-17 12:30 32.123611 -110.945208 244 2647ft 0kts
30-Aug-17 12:31 32.123611 -110.945208 244 2647ft 0kts
30-Aug-17 12:32 32.123611 -110.945208 244 2647ft 0kts
30-Aug-17 12:33 32.123611 -110.945208 244 2647ft 0kts
30-Aug-17 12:34 32.123611 -110.945208 244 2647ft 0kts
30-Aug-17 12:35 32.123611 -110.945208 244 2647ft 0kts
30-Aug-17 12:36 32.123611 -110.945208 244 2647ft 0kts
30-Aug-17 12:37 32.123611 -110.945208 244 2647ft 0kts
30-Aug-17 12:38 32.123611 -110.945208 244 2647ft 0kts
30-Aug-17 12:39 32.123772 -110.945665 299 2647ft 12kts
30-Aug-17 12:40 32.123673 -110.946289 227 2647ft 0kts
30-Aug-17 12:41 32.113511 -110.936337 129 2962ft 130kts
30-Aug-17 12:42 32.086965 -110.900397 130 3846ft 208kts
30-Aug-17 12:43 32.047536 -110.845967 129 5248ft 232kts
30-Aug-17 12:44 31.994144 -110.851427 248 6601ft 278kts
30-Aug-17 12:45 32.003204 -110.942167 279 7947ft 287kts
30-Aug-17 12:46 32.044855 -111.025247 309 8019ft 311kts
30-Aug-17 12:47 32.101519 -111.095639 337 8014ft 290kts
30-Aug-17 12:48 32.170046 -111.141102 330 8006ft 283kts
30-Aug-17 12:49 32.233588 -111.193944 304 7983ft 286kts
30-Aug-17 12:50 32.274204 -111.273783 301 7965ft 286kts
30-Aug-17 12:51 32.314293 -111.354419 301 7949ft 286kts
30-Aug-17 12:52 32.354431 -111.435526 301 7944ft 286kts
30-Aug-17 12:53 32.394086 -111.515960 301 7945ft 286kts
30-Aug-17 12:54 32.433868 -111.596865 301 7946ft 288kts
30-Aug-17 12:55 32.474584 -111.679733 301 7943ft 296kts
30-Aug-17 12:56 32.515189 -111.762598 301 9113ft 286kts
30-Aug-17 12:57 32.554740 -111.843404 301 9936ft 298kts
30-Aug-17 12:58 32.597385 -111.930740 301 9938ft 315kts
30-Aug-17 12:59 32.640996 -112.020299 301 9937ft 316kts
30-Aug-17 13:00 32.684811 -112.110400 301 9936ft 316kts
30-Aug-17 13:01 32.728397 -112.199867 301 9935ft 315kts
30-Aug-17 13:02 32.771219 -112.288697 301 10054ft 310kts
30-Aug-17 13:03 32.813705 -112.376817 301 10055ft 308kts
30-Aug-17 13:04 32.856115 -112.464964 301 10039ft 308kts
30-Aug-17 13:05 32.897714 -112.551630 301 10016ft 308kts
30-Aug-17 13:06 32.939738 -112.639394 301 10009ft 308kts
30-Aug-17 13:07 32.981321 -112.727952 300 10009ft 308kts
30-Aug-17 13:08 33.022853 -112.817191 300 10009ft 307kts
30-Aug-17 13:09 33.063810 -112.905304 300 10009ft 306kts
30-Aug-17 13:10 33.089909 -112.961557 300 10009ft 305kts
30-Aug-17 13:11 33.130757 -113.049784 299 10009ft 303kts
30-Aug-17 13:12 33.169294 -113.132804 299 10008ft 302kts
30-Aug-17 13:13 33.209819 -113.220316 299 10010ft 318kts
30-Aug-17 13:14 33.251941 -113.311910 299 10008ft 321kts
30-Aug-17 13:15 33.294610 -113.405455 299 10008ft 320kts
30-Aug-17 13:16 33.336426 -113.497006 299 10008ft 320kts
30-Aug-17 13:17 33.378644 -113.589559 299 10030ft 319kts
30-Aug-17 13:18 33.420574 -113.681710 299 10092ft 316kts
30-Aug-17 13:19 33.462159 -113.773340 299 10145ft 314kts
30-Aug-17 13:20 33.502562 -113.865554 285 10122ft 315kts
30-Aug-17 13:21 33.512944 -113.968938 278 10137ft 317kts
30-Aug-17 13:22 33.524674 -114.071775 281 9667ft 302kts
30-Aug-17 13:23 33.539370 -114.165696 280 8141ft 284kts
30-Aug-17 13:24 33.552775 -114.255925 280 6456ft 274kts
30-Aug-17 13:25 33.564605 -114.336942 280 6022ft 221kts
30-Aug-17 13:26 33.573939 -114.401182 280 6022ft 176kts
30-Aug-17 13:27 33.582320 -114.455145 282 5647ft 167kts
30-Aug-17 13:28 33.593641 -114.507993 285 4880ft 160kts
30-Aug-17 13:29 33.604530 -114.559387 290 3626ft 161kts
30-Aug-17 13:30 33.617116 -114.609636 279 2533ft 152kts
30-Aug-17 13:31 33.648934 -114.628988 3 1794ft 152kts
30-Aug-17 13:32 33.691270 -114.630917 344 1965ft 155kts
30-Aug-17 13:33 33.697977 -114.678464 263 1847ft 154kts
30-Aug-17 13:34 33.676684 -114.716354 188 1038ft 140kts
30-Aug-17 13:35 33.643466 -114.716647 182 647ft 116kts
30-Aug-17 13:36 33.619246 -114.716787 180 401ft 47kts
30-Aug-17 13:37 33.615142 -114.713301 102 401ft 21kts
30-Aug-17 13:38 33.614701 -114.712439 178 401ft 0kts
30-Aug-17 13:39 33.614701 -114.712439 178 401ft 0kts

Navigation Log

Ident Type
Flight plan parsing failed, navigation log unavailable